Terminal Aerodrome Forecast
Issued by NWS Wilmington, OH

Current Version | Previous Version | Text Only | Print | Product List | Glossary Off
Versions: 1 2 3 4 5 6 7 8 9 10 11 12 13 14 15 16 17 18 19 20

000
FTUS41 KILN 031600 AAA
TAFILN
TAF AMD
KILN 031600Z 0316/0412 05008KT P6SM VCSH SCT025 OVC040
      TEMPO 0316/0318 OVC025
     FM040100 01004KT P6SM SCT040=

USA.gov is the U.S. government's official web portal to all federal, state and local government web resources and services.